Time;durP1;ratioP1;P1;durP2;ratioP2;P2;SDS_P1;SDS_P2;PMS_P1;PMS_P2;Temp;Humidity;BMP_temperature;BMP_pressure;BME280_temperature;BME280_humidity;BME280_pressure;Samples;Min_cycle;Max_cycle;Signal;HPM_P1;HPM_P2
2022/01/20 00:03:50;;;;;;;9.77;5.30;;;3.90;91.70;;;;;;5095707;28;20732;-74
2022/01/20 00:28:12;;;;;;;6.50;4.03;;;3.90;91.40;;;;;;5095328;28;20557;-73
2022/01/20 00:38:21;;;;;;;7.53;4.70;;;3.90;91.20;;;;;;5093374;28;20424;-72
2022/01/20 00:40:47;;;;;;;8.90;4.60;;;4.00;91.30;;;;;;5093242;28;20512;-73
2022/01/20 00:43:13;;;;;;;7.80;4.30;;;4.00;91.30;;;;;;5092924;28;20468;-73
2022/01/20 00:45:40;;;;;;;6.10;3.63;;;3.90;91.50;;;;;;5092453;28;20445;-73
2022/01/20 00:48:06;;;;;;;5.60;3.60;;;3.90;91.60;;;;;;5093106;28;20421;-73
2022/01/20 00:50:34;;;;;;;7.37;4.03;;;3.90;91.70;;;;;;5093245;28;20478;-73
2022/01/20 00:53:00;;;;;;;8.23;4.90;;;3.90;91.80;;;;;;5093358;28;20421;-73
2022/01/20 00:55:26;;;;;;;8.37;4.20;;;3.80;92.00;;;;;;5093476;28;20457;-74
2022/01/20 00:57:52;;;;;;;7.83;3.90;;;3.90;92.20;;;;;;5093456;28;20452;-73
2022/01/20 01:00:18;;;;;;;8.40;4.57;;;3.90;92.40;;;;;;5092797;28;20202;-73
2022/01/20 01:02:43;;;;;;;5.07;3.90;;;4.00;92.30;;;;;;5092740;28;20262;-73
2022/01/20 01:05:11;;;;;;;5.73;3.90;;;4.00;91.90;;;;;;5092983;28;20421;-73
2022/01/20 01:10:09;;;;;;;4.80;3.30;;;3.90;91.90;;;;;;5091840;28;20523;-73
2022/01/20 01:12:47;;;;;;;7.13;3.70;;;3.90;91.90;;;;;;5091592;28;20478;-71
2022/01/20 01:15:20;;;;;;;6.67;4.20;;;3.90;91.80;;;;;;5090140;28;20285;-71
2022/01/20 01:20:34;;;;;;;5.30;3.57;;;3.90;92.30;;;;;;5091705;28;20416;-72
2022/01/20 01:23:00;;;;;;;6.57;3.60;;;4.00;92.70;;;;;;5091682;28;20777;-72
2022/01/20 01:25:26;;;;;;;6.53;3.80;;;3.90;92.80;;;;;;5091328;28;20463;-73
2022/01/20 01:27:52;;;;;;;7.60;3.80;;;3.80;92.80;;;;;;5091538;28;20987;-73
2022/01/20 01:30:39;;;;;;;7.23;4.43;;;3.80;93.00;;;;;;5093281;28;20549;-71
2022/01/20 01:33:06;;;;;;;6.33;3.57;;;3.80;93.20;;;;;;5086919;28;20198;-72
2022/01/20 01:35:33;;;;;;;6.10;3.30;;;3.80;93.30;;;;;;5091853;28;20468;-72
2022/01/20 01:40:33;;;;;;;4.83;3.40;;;3.70;93.20;;;;;;5090161;28;20409;-72
2022/01/20 01:43:06;;;;;;;4.03;3.17;;;3.70;93.10;;;;;;5091265;28;20856;-73
2022/01/20 01:45:36;;;;;;;4.87;2.97;;;3.70;93.30;;;;;;5091465;28;21057;-71
2022/01/20 01:48:03;;;;;;;7.07;3.47;;;3.70;93.20;;;;;;5091487;28;20974;-72
2022/01/20 01:50:30;;;;;;;5.50;2.80;;;3.60;93.10;;;;;;5092653;28;20431;-72
2022/01/20 01:52:57;;;;;;;4.20;2.57;;;3.60;93.30;;;;;;5095068;28;20950;-71
2022/01/20 01:55:24;;;;;;;4.35;3.10;;;3.60;93.40;;;;;;5093563;28;20524;-71
2022/01/20 01:57:50;;;;;;;5.70;3.45;;;3.60;93.60;;;;;;5092254;28;20244;-72
2022/01/20 02:00:18;;;;;;;4.85;3.05;;;3.60;93.70;;;;;;5091817;28;20237;-70
2022/01/20 02:02:44;;;;;;;4.95;2.90;;;3.50;93.90;;;;;;5092414;28;20693;-71
2022/01/20 02:05:14;;;;;;;5.60;3.13;;;3.50;94.00;;;;;;5092974;28;20179;-72
2022/01/20 02:18:46;;;;;;;6.70;2.95;;;3.50;93.90;;;;;;5094419;28;20424;-71
2022/01/20 02:21:12;;;;;;;4.97;2.90;;;3.50;93.80;;;;;;5090735;28;20168;-72
2022/01/20 02:23:38;;;;;;;3.42;2.45;;;3.50;93.80;;;;;;5096138;28;20470;-70
2022/01/20 02:26:04;;;;;;;6.63;3.13;;;3.50;93.70;;;;;;5094402;28;20207;-70
2022/01/20 02:28:30;;;;;;;4.85;2.78;;;3.50;93.80;;;;;;5096180;28;20198;-72
2022/01/20 02:30:56;;;;;;;4.33;2.70;;;3.50;93.80;;;;;;5094194;28;20217;-71
2022/01/20 02:33:25;;;;;;;4.90;2.97;;;3.50;93.90;;;;;;5093757;28;20424;-71
2022/01/20 02:35:56;;;;;;;4.07;2.53;;;3.50;93.90;;;;;;5091898;28;20207;-72
2022/01/20 02:38:38;;;;;;;3.42;2.63;;;3.50;93.90;;;;;;5093298;28;20256;-73
2022/01/20 02:46:37;;;;;;;3.70;2.50;;;3.50;94.20;;;;;;5092844;28;20232;-72
2022/01/20 02:49:04;;;;;;;4.00;2.33;;;3.50;94.20;;;;;;5091962;28;20417;-73
2022/01/20 02:51:30;;;;;;;4.30;3.03;;;3.50;94.20;;;;;;5093361;28;20454;-71
2022/01/20 02:53:56;;;;;;;6.50;2.40;;;3.60;94.20;;;;;;5093604;28;20433;-70
2022/01/20 02:56:22;;;;;;;3.50;2.40;;;3.60;94.20;;;;;;5092645;28;20473;-72
2022/01/20 02:58:48;;;;;;;3.30;2.30;;;3.60;94.20;;;;;;5093077;28;20417;-71
2022/01/20 03:01:14;;;;;;;4.37;2.80;;;3.60;93.90;;;;;;5092200;28;20327;-70
2022/01/20 03:03:40;;;;;;;2.80;1.97;;;3.80;93.90;;;;;;5093223;28;20470;-72
2022/01/20 03:06:06;;;;;;;3.80;1.70;;;3.70;93.60;;;;;;5092888;28;20444;-72
2022/01/20 03:08:32;;;;;;;3.00;2.07;;;3.80;93.60;;;;;;5092758;28;20683;-72
2022/01/20 03:10:57;;;;;;;8.07;2.10;;;3.80;93.50;;;;;;5091794;28;20470;-71
2022/01/20 03:13:23;;;;;;;3.33;2.27;;;3.80;93.30;;;;;;5093127;28;20633;-73
2022/01/20 03:15:49;;;;;;;3.97;2.30;;;3.80;93.30;;;;;;5092489;28;20518;-72
2022/01/20 03:18:15;;;;;;;2.40;2.23;;;3.80;93.30;;;;;;5092820;28;20175;-71
2022/01/20 03:20:40;;;;;;;3.93;2.00;;;3.90;93.30;;;;;;5093067;28;20655;-72
2022/01/20 03:23:06;;;;;;;3.80;2.23;;;3.90;93.30;;;;;;5093085;28;20215;-73
2022/01/20 03:25:32;;;;;;;2.83;2.03;;;3.90;93.30;;;;;;5092743;28;20212;-73
2022/01/20 03:27:58;;;;;;;3.63;2.37;;;3.80;93.30;;;;;;5092960;28;20528;-71
2022/01/20 03:30:25;;;;;;;4.87;2.47;;;3.80;93.50;;;;;;5092653;28;20420;-73
2022/01/20 03:32:51;;;;;;;3.63;2.20;;;3.90;93.50;;;;;;5092726;28;20183;-73
2022/01/20 03:35:17;;;;;;;3.47;1.70;;;3.80;93.60;;;;;;5092513;28;20460;-72
2022/01/20 03:37:43;;;;;;;2.57;2.03;;;3.80;93.80;;;;;;5092513;28;20211;-74
2022/01/20 03:40:09;;;;;;;2.10;2.00;;;3.80;94.00;;;;;;5092375;28;20417;-72
2022/01/20 03:42:36;;;;;;;4.73;2.50;;;3.80;93.90;;;;;;5092728;28;20186;-75
2022/01/20 03:45:02;;;;;;;3.40;2.23;;;3.70;94.30;;;;;;5092020;28;20779;-72
2022/01/20 03:47:28;;;;;;;3.30;1.90;;;3.80;94.40;;;;;;5090999;28;20441;-71
2022/01/20 03:52:20;;;;;;;2.43;2.10;;;3.90;94.40;;;;;;5092144;28;20240;-73
2022/01/20 03:54:46;;;;;;;2.50;1.80;;;3.90;94.30;;;;;;5092039;28;20468;-71
2022/01/20 03:57:12;;;;;;;3.47;2.17;;;3.90;94.30;;;;;;5090885;28;20600;-72
2022/01/20 03:59:38;;;;;;;4.00;2.33;;;3.90;94.10;;;;;;5091730;28;20492;-72
2022/01/20 04:02:05;;;;;;;2.87;2.10;;;3.90;94.10;;;;;;5090739;28;20512;-72
2022/01/20 04:04:31;;;;;;;6.17;2.73;;;3.90;94.10;;;;;;5091937;28;20176;-70
2022/01/20 04:06:57;;;;;;;4.10;2.40;;;3.90;94.10;;;;;;5090270;28;20441;-71
2022/01/20 04:09:23;;;;;;;3.33;2.07;;;4.00;94.20;;;;;;5090050;28;20993;-73
2022/01/20 04:11:49;;;;;;;4.63;2.60;;;4.00;94.20;;;;;;5091915;28;20535;-73
2022/01/20 04:14:15;;;;;;;6.17;2.63;;;4.00;94.00;;;;;;5091845;28;20418;-71
2022/01/20 04:17:02;;;;;;;4.47;2.50;;;4.00;94.00;;;;;;5090206;28;20483;-73
2022/01/20 04:19:30;;;;;;;5.37;2.80;;;4.00;93.90;;;;;;5087982;28;20225;-72
2022/01/20 04:21:56;;;;;;;4.63;2.73;;;4.00;93.80;;;;;;5090355;28;20417;-72
2022/01/20 04:24:22;;;;;;;3.40;2.70;;;4.00;93.90;;;;;;5091496;28;20875;-71
2022/01/20 04:26:48;;;;;;;4.20;2.63;;;4.00;93.80;;;;;;5091104;28;20447;-72
2022/01/20 04:29:16;;;;;;;3.37;2.60;;;4.00;93.80;;;;;;5091579;28;20176;-70
2022/01/20 04:31:42;;;;;;;4.90;2.87;;;4.10;93.60;;;;;;5090379;28;20474;-73
2022/01/20 04:34:09;;;;;;;3.30;2.30;;;4.10;93.50;;;;;;5092039;28;20417;-71
2022/01/20 04:36:39;;;;;;;3.33;2.73;;;4.10;93.40;;;;;;5091757;28;20476;-73
2022/01/20 04:39:07;;;;;;;3.63;2.50;;;4.00;93.50;;;;;;5096404;28;20421;-71
2022/01/20 04:41:33;;;;;;;4.60;2.73;;;4.10;93.40;;;;;;5099179;28;20417;-71
2022/01/20 04:44:01;;;;;;;5.47;2.87;;;4.10;93.30;;;;;;5100953;28;20482;-72
2022/01/20 04:46:39;;;;;;;4.70;2.63;;;4.00;93.20;;;;;;5091211;28;20532;-72
2022/01/20 04:57:19;;;;;;;4.17;2.57;;;4.20;93.30;;;;;;5090748;28;20946;-72
2022/01/20 04:59:46;;;;;;;4.50;2.70;;;4.10;93.60;;;;;;5090726;28;20413;-74
2022/01/20 05:02:13;;;;;;;5.57;3.07;;;4.00;94.10;;;;;;5090778;28;20795;-72
2022/01/20 05:04:39;;;;;;;5.67;3.20;;;3.90;94.40;;;;;;5090510;28;20405;-73
2022/01/20 05:07:06;;;;;;;5.07;3.17;;;3.90;94.70;;;;;;5090492;28;20544;-74
2022/01/20 05:09:33;;;;;;;4.00;2.80;;;3.90;94.90;;;;;;5090360;28;20409;-75
2022/01/20 05:12:06;;;;;;;8.60;3.93;;;3.90;95.00;;;;;;5090960;28;20755;-73
2022/01/20 05:14:32;;;;;;;5.20;2.90;;;3.80;95.10;;;;;;5088772;28;20409;-73
2022/01/20 05:16:59;;;;;;;4.43;2.67;;;3.80;95.30;;;;;;5090875;28;20966;-74
2022/01/20 05:19:26;;;;;;;4.90;3.00;;;3.80;95.40;;;;;;5091327;28;20181;-74
2022/01/20 05:21:53;;;;;;;5.37;3.00;;;3.80;95.60;;;;;;5090596;28;20414;-74
2022/01/20 05:24:19;;;;;;;6.17;3.40;;;3.80;95.60;;;;;;5089226;28;20776;-73
2022/01/20 05:26:46;;;;;;;6.93;3.60;;;3.80;95.80;;;;;;5089335;28;20437;-74
2022/01/20 05:29:12;;;;;;;5.03;3.67;;;3.80;95.90;;;;;;5090633;28;20451;-73
2022/01/20 05:31:38;;;;;;;5.03;3.00;;;3.80;96.00;;;;;;5089397;28;20433;-74
2022/01/20 05:34:03;;;;;;;4.80;3.27;;;3.90;96.00;;;;;;5091812;28;20222;-71
2022/01/20 05:36:29;;;;;;;7.47;3.87;;;3.80;95.80;;;;;;5095754;28;20214;-75
2022/01/20 05:38:55;;;;;;;6.30;3.30;;;3.70;95.80;;;;;;5094298;28;20202;-74
2022/01/20 05:41:21;;;;;;;4.57;3.30;;;3.60;95.80;;;;;;5090422;28;20236;-74
2022/01/20 05:43:46;;;;;;;5.47;3.50;;;3.60;95.90;;;;;;5090385;28;20422;-74
2022/01/20 05:46:14;;;;;;;6.53;3.40;;;3.60;96.10;;;;;;5088843;28;20222;-73
2022/01/20 05:48:48;;;;;;;8.00;3.33;;;3.70;96.20;;;;;;5090072;28;20190;-74
2022/01/20 05:51:15;;;;;;;4.40;2.77;;;3.70;96.20;;;;;;5090544;28;20425;-73
2022/01/20 05:53:41;;;;;;;6.83;3.60;;;3.60;96.10;;;;;;5093150;28;20462;-72
2022/01/20 05:56:07;;;;;;;6.53;3.43;;;3.60;96.00;;;;;;5092714;28;20457;-73
2022/01/20 05:58:37;;;;;;;6.27;3.20;;;3.60;96.00;;;;;;5094574;28;20436;-72
2022/01/20 06:01:06;;;;;;;5.23;3.47;;;3.50;96.10;;;;;;5095442;28;20413;-73
2022/01/20 06:03:38;;;;;;;9.67;4.23;;;3.60;95.90;;;;;;5095070;28;20423;-73
2022/01/20 06:06:06;;;;;;;5.80;3.20;;;3.60;96.00;;;;;;5095087;28;20457;-74
2022/01/20 06:08:33;;;;;;;6.17;3.33;;;3.60;96.00;;;;;;5094564;28;20425;-72
2022/01/20 06:10:58;;;;;;;4.23;2.90;;;3.60;95.90;;;;;;5095322;28;20413;-73
2022/01/20 06:13:25;;;;;;;8.83;4.20;;;3.60;95.90;;;;;;5094296;28;20765;-72
2022/01/20 06:15:51;;;;;;;16.03;3.50;;;3.60;95.90;;;;;;5094012;28;21107;-75
2022/01/20 06:18:17;;;;;;;8.03;2.83;;;3.60;95.80;;;;;;5095050;28;20429;-74
2022/01/20 06:20:44;;;;;;;7.37;3.03;;;3.70;95.80;;;;;;5095133;28;20178;-73
2022/01/20 06:23:10;;;;;;;4.83;3.40;;;3.70;95.80;;;;;;5093005;28;20422;-75
2022/01/20 06:25:37;;;;;;;6.23;3.27;;;3.60;95.70;;;;;;5093662;28;20482;-75
2022/01/20 06:28:03;;;;;;;6.27;3.33;;;3.60;95.60;;;;;;5093689;28;20505;-71
2022/01/20 06:30:31;;;;;;;5.10;3.10;;;3.60;95.60;;;;;;5094005;28;20413;-75
2022/01/20 06:32:57;;;;;;;8.03;3.37;;;3.70;95.50;;;;;;5094221;28;20428;-72
2022/01/20 06:35:23;;;;;;;5.10;3.30;;;3.70;95.60;;;;;;5093705;28;20895;-73
2022/01/20 06:37:49;;;;;;;5.07;3.37;;;3.90;95.60;;;;;;5093992;28;20417;-75
2022/01/20 06:40:15;;;;;;;6.00;3.40;;;3.90;95.40;;;;;;5094568;28;20496;-74
2022/01/20 06:42:41;;;;;;;7.73;3.30;;;3.90;95.10;;;;;;5094212;28;20638;-74
2022/01/20 06:45:11;;;;;;;5.90;2.93;;;3.80;94.80;;;;;;5095445;28;20468;-74
2022/01/20 06:47:36;;;;;;;5.10;2.90;;;3.70;94.60;;;;;;5093173;28;20823;-75
2022/01/20 06:50:05;;;;;;;9.10;4.10;;;3.70;94.70;;;;;;5095566;28;20417;-72
2022/01/20 06:52:30;;;;;;;5.47;2.93;;;3.70;94.80;;;;;;5093874;28;20263;-74
2022/01/20 06:54:58;;;;;;;3.70;2.90;;;3.70;94.80;;;;;;5093155;28;20539;-75
2022/01/20 06:57:23;;;;;;;7.73;2.80;;;3.70;94.80;;;;;;5093691;28;20210;-73
2022/01/20 06:59:49;;;;;;;5.20;3.07;;;3.70;94.80;;;;;;5094738;28;20840;-75
2022/01/20 07:02:15;;;;;;;4.50;2.90;;;3.70;94.80;;;;;;5094271;28;20444;-73
2022/01/20 07:04:43;;;;;;;5.57;3.10;;;3.60;94.70;;;;;;5092313;28;20202;-73
2022/01/20 07:07:09;;;;;;;8.07;3.90;;;3.60;94.90;;;;;;5091267;28;20437;-71
2022/01/20 07:09:35;;;;;;;6.40;4.13;;;3.60;95.00;;;;;;5092061;28;20482;-74
2022/01/20 07:12:02;;;;;;;5.57;3.23;;;3.50;95.00;;;;;;5092803;28;20410;-73
2022/01/20 07:14:29;;;;;;;4.50;2.90;;;3.40;95.20;;;;;;5092315;28;20413;-71
2022/01/20 07:16:55;;;;;;;5.73;3.07;;;3.40;95.30;;;;;;5092524;28;20463;-75
2022/01/20 07:19:21;;;;;;;7.07;2.90;;;3.40;95.40;;;;;;5092429;28;20414;-73
2022/01/20 07:21:47;;;;;;;5.40;2.50;;;3.30;95.40;;;;;;5092418;28;20451;-73
2022/01/20 07:24:13;;;;;;;10.83;2.90;;;3.30;95.60;;;;;;5092802;28;20653;-74
2022/01/20 07:26:38;;;;;;;4.50;2.57;;;3.30;95.60;;;;;;5092452;28;20195;-74
2022/01/20 07:29:05;;;;;;;5.50;2.73;;;3.30;95.50;;;;;;5092476;28;20417;-74
2022/01/20 07:31:31;;;;;;;8.20;3.07;;;3.40;95.50;;;;;;5092075;28;20176;-73
2022/01/20 07:33:56;;;;;;;5.40;2.83;;;3.30;95.50;;;;;;5092442;28;20413;-72
2022/01/20 07:36:22;;;;;;;4.10;2.83;;;3.30;95.50;;;;;;5094477;28;20476;-74
2022/01/20 07:38:48;;;;;;;6.10;3.00;;;3.30;95.50;;;;;;5092913;28;20429;-74
2022/01/20 07:41:14;;;;;;;7.30;2.67;;;3.30;95.60;;;;;;5092122;28;20261;-74
2022/01/20 07:43:41;;;;;;;6.75;3.20;;;3.30;95.60;;;;;;5093307;28;20201;-73
2022/01/20 07:46:06;;;;;;;5.73;3.23;;;3.30;95.40;;;;;;5050208;28;1206760;-74
2022/01/20 07:48:33;;;;;;;7.63;3.20;;;3.30;95.20;;;;;;5092835;28;20845;-72
2022/01/20 07:51:00;;;;;;;6.63;2.63;;;3.30;95.20;;;;;;5085592;28;20450;-75
2022/01/20 07:53:25;;;;;;;7.43;3.00;;;3.30;95.00;;;;;;5093419;28;20440;-73
2022/01/20 07:55:52;;;;;;;6.77;3.13;;;3.30;94.90;;;;;;5093106;28;20983;-74
2022/01/20 07:58:18;;;;;;;5.50;3.27;;;3.30;94.80;;;;;;5092953;28;20182;-72
2022/01/20 08:00:44;;;;;;;6.60;3.43;;;3.30;94.80;;;;;;5090899;28;20577;-74
2022/01/20 08:03:10;;;;;;;7.63;3.43;;;3.30;94.70;;;;;;5092156;28;20417;-74
2022/01/20 08:05:36;;;;;;;5.93;3.13;;;3.30;94.70;;;;;;5090369;28;20183;-72
2022/01/20 08:08:02;;;;;;;5.27;2.80;;;3.30;94.70;;;;;;5092208;28;20428;-72
2022/01/20 08:10:28;;;;;;;7.13;3.17;;;3.30;94.60;;;;;;5092430;28;20183;-72
2022/01/20 08:12:54;;;;;;;5.33;3.30;;;3.40;94.40;;;;;;5092978;28;20506;-72
2022/01/20 08:15:21;;;;;;;7.93;3.47;;;3.40;94.30;;;;;;5095551;28;20461;-73
2022/01/20 08:17:47;;;;;;;8.60;3.80;;;3.50;94.00;;;;;;5094423;28;20210;-74
2022/01/20 08:20:13;;;;;;;10.93;3.80;;;3.60;93.80;;;;;;5093513;28;20453;-72
2022/01/20 08:22:39;;;;;;;9.43;3.73;;;3.60;93.30;;;;;;5092362;28;20429;-73
2022/01/20 08:25:10;;;;;;;5.70;3.00;;;3.70;92.90;;;;;;5091975;28;20426;-72
2022/01/20 08:27:39;;;;;;;11.10;3.60;;;3.80;92.80;;;;;;5089854;28;20523;-72
2022/01/20 08:30:12;;;;;;;8.07;3.70;;;3.80;92.30;;;;;;5094957;28;20891;-72
2022/01/20 08:32:38;;;;;;;9.33;4.00;;;3.90;91.90;;;;;;5099511;28;20420;-72
2022/01/20 08:35:06;;;;;;;16.47;4.10;;;3.90;91.80;;;;;;5096890;28;20465;-72
2022/01/20 08:37:33;;;;;;;10.03;4.00;;;3.90;91.70;;;;;;5096139;28;20517;-72
2022/01/20 08:40:00;;;;;;;12.67;4.20;;;3.90;91.70;;;;;;5100932;28;20431;-70
2022/01/20 08:42:26;;;;;;;10.33;3.80;;;4.00;91.40;;;;;;5101385;28;20568;-72
2022/01/20 08:44:52;;;;;;;12.77;3.30;;;4.00;91.40;;;;;;5092406;28;20516;-72
2022/01/20 08:47:20;;;;;;;18.03;4.20;;;4.00;91.30;;;;;;5092325;28;20294;-71
2022/01/20 08:49:47;;;;;;;9.63;3.73;;;4.00;90.70;;;;;;5092286;28;20269;-72
2022/01/20 08:52:17;;;;;;;8.97;3.53;;;4.00;90.70;;;;;;5090818;28;20436;-73
2022/01/20 08:54:47;;;;;;;7.20;3.13;;;4.00;90.60;;;;;;5091115;28;20444;-72
2022/01/20 08:57:14;;;;;;;11.13;4.30;;;4.00;90.60;;;;;;5090662;28;20986;-71
2022/01/20 08:59:42;;;;;;;7.63;3.57;;;4.00;90.70;;;;;;5092255;28;20417;-73
2022/01/20 09:02:08;;;;;;;6.43;3.40;;;4.10;90.70;;;;;;5092309;28;20417;-71
2022/01/20 09:04:34;;;;;;;6.73;3.43;;;4.20;90.30;;;;;;5091009;28;20896;-71
2022/01/20 09:07:00;;;;;;;7.30;3.50;;;4.10;90.10;;;;;;5092354;28;20437;-73
2022/01/20 09:09:25;;;;;;;13.00;3.77;;;4.20;90.40;;;;;;5092072;28;20179;-71
2022/01/20 09:12:04;;;;;;;8.87;3.93;;;4.30;90.30;;;;;;5091716;28;20665;-72
2022/01/20 09:17:15;;;;;;;11.20;4.30;;;4.50;89.90;;;;;;5092119;28;20960;-74
2022/01/20 09:19:40;;;;;;;7.57;3.60;;;4.60;89.30;;;;;;5092985;28;20423;-74
2022/01/20 09:22:06;;;;;;;11.63;4.77;;;4.60;88.60;;;;;;5094943;28;20497;-72
2022/01/20 09:24:32;;;;;;;10.10;3.80;;;4.70;88.60;;;;;;5095223;28;20207;-71
2022/01/20 09:26:57;;;;;;;6.53;3.73;;;4.80;88.40;;;;;;5092146;28;20236;-73
2022/01/20 09:29:23;;;;;;;9.87;3.90;;;4.80;87.80;;;;;;5091960;28;20183;-71
2022/01/20 09:31:51;;;;;;;10.33;3.80;;;4.70;87.70;;;;;;5091970;28;20175;-72
2022/01/20 09:34:17;;;;;;;9.20;3.63;;;4.70;87.70;;;;;;5092283;28;20179;-72
2022/01/20 09:36:45;;;;;;;10.90;3.67;;;4.70;88.00;;;;;;5092037;28;20987;-73
2022/01/20 09:39:11;;;;;;;8.93;3.80;;;4.80;87.80;;;;;;5092197;28;20420;-72
2022/01/20 09:41:37;;;;;;;11.73;3.33;;;4.70;87.30;;;;;;5091337;28;20456;-72
2022/01/20 09:44:05;;;;;;;11.20;3.87;;;4.80;87.10;;;;;;5091382;28;20445;-72
2022/01/20 09:46:32;;;;;;;9.30;3.93;;;4.80;86.60;;;;;;5091021;28;20894;-72
2022/01/20 09:48:58;;;;;;;9.23;4.70;;;4.80;87.00;;;;;;5090916;28;20508;-72
2022/01/20 09:51:25;;;;;;;14.30;3.63;;;4.80;86.60;;;;;;5091441;28;20552;-72
2022/01/20 09:53:51;;;;;;;11.33;3.40;;;4.80;86.50;;;;;;5091272;28;21655;-74
2022/01/20 09:56:17;;;;;;;12.10;4.33;;;4.80;86.80;;;;;;5091099;28;20464;-71
2022/01/20 09:58:43;;;;;;;13.60;3.57;;;4.80;86.90;;;;;;5090615;28;20482;-73
2022/01/20 10:01:09;;;;;;;8.33;4.87;;;4.90;86.50;;;;;;5091244;28;20610;-72
2022/01/20 10:03:38;;;;;;;6.40;3.20;;;5.00;86.60;;;;;;5091127;28;20524;-71
2022/01/20 10:06:06;;;;;;;5.80;3.00;;;5.10;86.20;;;;;;5091064;28;20536;-73
2022/01/20 10:08:35;;;;;;;8.60;3.90;;;5.30;85.70;;;;;;5089432;28;20464;-71
2022/01/20 10:11:10;;;;;;;8.20;3.20;;;5.20;84.60;;;;;;5091331;28;20903;-71
2022/01/20 10:13:38;;;;;;;14.90;3.57;;;5.20;84.90;;;;;;5090687;28;20428;-71
2022/01/20 10:16:06;;;;;;;10.83;4.13;;;5.20;84.90;;;;;;5091049;28;20475;-71
2022/01/20 10:18:34;;;;;;;11.20;3.57;;;5.20;84.60;;;;;;5090723;28;20425;-72
2022/01/20 10:21:03;;;;;;;7.63;4.00;;;5.20;84.70;;;;;;5091223;28;20418;-70
2022/01/20 10:23:49;;;;;;;8.80;3.40;;;5.20;84.60;;;;;;5090898;28;20436;-72
2022/01/20 10:26:24;;;;;;;10.30;3.40;;;5.20;84.10;;;;;;5084187;28;20553;-72
2022/01/20 10:29:04;;;;;;;7.30;3.27;;;5.20;84.10;;;;;;5091969;28;20417;-73
2022/01/20 10:31:51;;;;;;;6.87;3.50;;;5.10;83.00;;;;;;5093060;28;20428;-72
2022/01/20 10:34:20;;;;;;;10.10;4.20;;;5.10;83.70;;;;;;5086175;28;20428;-71
2022/01/20 10:36:55;;;;;;;9.23;3.80;;;5.10;83.60;;;;;;5090308;28;20464;-73
2022/01/20 10:39:37;;;;;;;12.10;3.90;;;5.10;83.80;;;;;;5091831;28;20425;-74
2022/01/20 10:42:07;;;;;;;9.10;4.40;;;5.20;83.40;;;;;;5094281;28;20413;-72
2022/01/20 10:44:54;;;;;;;11.40;4.33;;;5.20;82.80;;;;;;5094761;28;20432;-73
2022/01/20 10:47:29;;;;;;;6.00;3.73;;;5.20;82.40;;;;;;5089637;28;20445;-72
2022/01/20 10:50:07;;;;;;;9.40;3.70;;;5.20;81.90;;;;;;5091643;28;20427;-73
2022/01/20 10:52:37;;;;;;;12.93;3.50;;;5.20;82.20;;;;;;5094639;28;20409;-71
2022/01/20 10:55:04;;;;;;;12.90;4.70;;;5.10;81.90;;;;;;5092785;28;20545;-73
2022/01/20 10:57:32;;;;;;;9.50;4.23;;;5.10;81.90;;;;;;5092125;28;20476;-71
2022/01/20 11:00:02;;;;;;;8.23;3.70;;;5.10;82.40;;;;;;5094645;28;20414;-72
2022/01/20 11:02:29;;;;;;;5.97;3.70;;;5.20;82.40;;;;;;5094785;28;20433;-72
2022/01/20 11:04:57;;;;;;;9.37;4.00;;;5.20;81.80;;;;;;5095214;28;20525;-73
2022/01/20 11:07:24;;;;;;;6.73;3.43;;;5.20;82.40;;;;;;5093957;28;20441;-73
2022/01/20 11:10:03;;;;;;;6.70;4.13;;;5.30;82.40;;;;;;5095954;28;20413;-73
2022/01/20 11:12:29;;;;;;;16.30;4.70;;;5.40;82.70;;;;;;5093592;28;20409;-73
2022/01/20 11:14:57;;;;;;;14.67;5.30;;;5.40;82.10;;;;;;5093612;28;20781;-73
2022/01/20 11:17:25;;;;;;;13.70;4.60;;;5.40;82.20;;;;;;5094806;28;20471;-73
2022/01/20 11:19:51;;;;;;;7.13;4.33;;;5.40;82.40;;;;;;5105078;28;20418;-72
2022/01/20 11:22:20;;;;;;;9.93;4.03;;;5.30;83.00;;;;;;5108650;28;20964;-73
2022/01/20 11:25:14;;;;;;;23.97;4.97;;;5.40;83.10;;;;;;5101944;28;20417;-73
2022/01/20 11:27:42;;;;;;;8.27;4.07;;;5.40;83.10;;;;;;5094560;28;20455;-75
2022/01/20 11:30:16;;;;;;;11.60;4.23;;;5.30;83.10;;;;;;5094167;28;20777;-73
2022/01/20 11:32:42;;;;;;;9.47;4.27;;;5.30;83.10;;;;;;5094585;28;20505;-72
2022/01/20 11:35:10;;;;;;;7.07;4.07;;;5.30;83.30;;;;;;5093413;28;20982;-73
2022/01/20 11:37:41;;;;;;;8.97;4.00;;;5.30;83.00;;;;;;5092407;28;20449;-74
2022/01/20 11:40:12;;;;;;;11.70;3.90;;;5.30;83.00;;;;;;5093952;28;20421;-74
2022/01/20 11:42:38;;;;;;;12.60;5.00;;;5.30;82.20;;;;;;5093410;28;20409;-73
2022/01/20 11:45:28;;;;;;;13.47;4.30;;;5.30;81.90;;;;;;5093190;28;20501;-74
2022/01/20 11:47:54;;;;;;;8.27;4.10;;;5.40;82.20;;;;;;5094073;28;20417;-74
2022/01/20 11:50:21;;;;;;;11.67;4.50;;;5.40;82.20;;;;;;5092727;28;20408;-73
2022/01/20 11:52:47;;;;;;;5.30;3.40;;;5.60;81.40;;;;;;5092078;28;20892;-74
2022/01/20 11:55:15;;;;;;;7.90;3.90;;;5.70;80.60;;;;;;5093629;28;20514;-73
2022/01/20 11:57:41;;;;;;;6.63;2.80;;;5.70;80.30;;;;;;5093787;28;20506;-73
2022/01/20 12:00:24;;;;;;;6.00;3.70;;;5.60;78.70;;;;;;5093896;28;20409;-76
2022/01/20 12:02:50;;;;;;;9.37;3.00;;;5.70;79.60;;;;;;5093058;28;20452;-73
2022/01/20 12:05:28;;;;;;;7.10;3.67;;;5.70;79.20;;;;;;5091344;28;20465;-72
2022/01/20 12:08:23;;;;;;;8.37;3.10;;;5.80;79.00;;;;;;5091181;28;20514;-73
2022/01/20 12:11:05;;;;;;;7.90;3.13;;;5.90;77.70;;;;;;5079253;28;20437;-74
2022/01/20 12:13:31;;;;;;;11.10;3.10;;;5.90;77.10;;;;;;5092868;28;20451;-73
2022/01/20 12:16:01;;;;;;;7.33;3.10;;;5.80;77.10;;;;;;5092457;28;20456;-73
2022/01/20 12:18:29;;;;;;;7.17;3.23;;;5.80;77.40;;;;;;5093168;28;20405;-74
2022/01/20 12:20:55;;;;;;;5.77;2.90;;;5.70;77.40;;;;;;5091633;28;20945;-75
2022/01/20 12:23:24;;;;;;;9.87;2.83;;;5.70;77.80;;;;;;5093319;28;20424;-74
2022/01/20 12:25:50;;;;;;;8.73;3.57;;;5.60;78.10;;;;;;5091323;28;20469;-73
2022/01/20 12:28:17;;;;;;;6.53;3.10;;;5.50;78.40;;;;;;5092965;28;20437;-74
2022/01/20 12:30:48;;;;;;;3.17;1.83;;;5.50;79.30;;;;;;5092040;28;20433;-74
2022/01/20 12:33:16;;;;;;;4.13;1.70;;;5.10;80.00;;;;;;5093351;28;20806;-75
2022/01/20 12:35:46;;;;;;;4.00;2.00;;;4.20;85.00;;;;;;5092866;28;20540;-74
2022/01/20 12:38:33;;;;;;;7.80;1.80;;;3.70;88.00;;;;;;5093301;28;20500;-74
2022/01/20 12:41:07;;;;;;;3.60;2.03;;;3.30;90.20;;;;;;5086636;28;20409;-73
2022/01/20 12:43:39;;;;;;;4.70;2.37;;;3.10;91.50;;;;;;5093398;28;20424;-71
2022/01/20 12:46:06;;;;;;;6.72;2.45;;;2.80;92.20;;;;;;5092652;28;20514;-73
2022/01/20 12:48:32;;;;;;;7.03;2.25;;;2.60;93.10;;;;;;5094029;28;20179;-73
2022/01/20 12:50:59;;;;;;;12.63;3.00;;;2.50;93.70;;;;;;5086864;28;20183;-72
2022/01/20 12:53:37;;;;;;;6.55;2.80;;;2.40;94.30;;;;;;5091378;28;20179;-75
2022/01/20 12:56:08;;;;;;;7.40;3.10;;;2.40;94.80;;;;;;5086736;28;20218;-74
2022/01/20 12:58:51;;;;;;;10.70;3.55;;;2.40;95.00;;;;;;5092462;28;20164;-75
2022/01/20 13:01:18;;;;;;;6.13;2.67;;;2.50;95.20;;;;;;5092423;28;20183;-73
2022/01/20 13:03:44;;;;;;;8.60;2.22;;;2.50;95.20;;;;;;5094213;28;20261;-76
2022/01/20 13:06:20;;;;;;;8.55;2.63;;;2.40;94.70;;;;;;5092749;28;20198;-75
2022/01/20 13:08:59;;;;;;;8.07;2.80;;;2.40;94.60;;;;;;5093301;28;20197;-73
2022/01/20 13:11:43;;;;;;;7.15;3.30;;;2.40;94.30;;;;;;5090940;28;20255;-74
2022/01/20 13:14:10;;;;;;;7.80;2.75;;;2.40;94.20;;;;;;5091348;28;21602;-74
2022/01/20 13:16:37;;;;;;;7.93;2.50;;;2.50;94.20;;;;;;5095139;28;20229;-75
2022/01/20 13:19:06;;;;;;;9.43;2.85;;;2.60;94.10;;;;;;5095541;28;20175;-73
2022/01/20 13:21:43;;;;;;;7.28;3.00;;;2.60;93.70;;;;;;5093977;28;20657;-73
2022/01/20 13:24:10;;;;;;;6.72;3.47;;;2.60;93.60;;;;;;5092198;28;20190;-73
2022/01/20 13:26:53;;;;;;;6.60;2.80;;;2.80;93.50;;;;;;5092092;28;20202;-74
2022/01/20 13:29:21;;;;;;;10.77;3.30;;;2.70;93.00;;;;;;5088017;28;20252;-73
2022/01/20 13:31:56;;;;;;;6.40;3.10;;;2.80;93.20;;;;;;5092191;28;20222;-73
2022/01/20 13:34:22;;;;;;;10.52;4.10;;;2.70;93.30;;;;;;5090497;28;20432;-72
2022/01/20 13:36:51;;;;;;;7.88;2.63;;;2.70;93.50;;;;;;5091028;28;20609;-73
2022/01/20 13:39:38;;;;;;;7.82;3.30;;;2.70;93.60;;;;;;5090317;28;20673;-71
2022/01/20 13:42:22;;;;;;;7.82;3.40;;;2.80;93.90;;;;;;5090447;28;20194;-76
2022/01/20 13:45:20;;;;;;;8.23;3.63;;;2.90;94.00;;;;;;5091097;28;20179;-75
2022/01/20 13:47:56;;;;;;;5.30;2.90;;;2.90;93.60;;;;;;5026640;28;20346;-74
2022/01/20 13:50:25;;;;;;;12.73;3.30;;;2.90;93.30;;;;;;5028817;28;20191;-75
2022/01/20 13:52:52;;;;;;;9.10;2.93;;;2.90;92.90;;;;;;5027254;28;20431;-74
2022/01/20 13:55:28;;;;;;;5.93;2.67;;;3.00;92.80;;;;;;5024283;28;20459;-73
2022/01/20 13:57:55;;;;;;;8.65;3.00;;;3.00;92.60;;;;;;5026876;28;20216;-75
2022/01/20 14:00:23;;;;;;;7.30;3.13;;;2.90;92.60;;;;;;5031575;28;20192;-73
2022/01/20 14:02:50;;;;;;;10.85;3.35;;;2.90;92.80;;;;;;5022810;28;20797;-74
2022/01/20 14:05:31;;;;;;;10.43;3.50;;;2.90;92.80;;;;;;5028341;28;20196;-75
2022/01/20 14:07:58;;;;;;;7.10;2.55;;;3.00;92.90;;;;;;5023102;28;20196;-74
2022/01/20 14:10:24;;;;;;;12.23;3.70;;;3.10;92.70;;;;;;5025249;28;20240;-74
2022/01/20 14:12:50;;;;;;;10.97;3.70;;;3.10;92.70;;;;;;5021071;28;20193;-74